EGJB - Guernsey Airport
Distance from station: E 5mi, 14km
Updated: 02/20/2018 11:20am
Clear
Clear
 Wind from N
Wind: N 15 mph , 24 km/h
Temperature: 46°F , 8°C
Wind Chill: 40°F , 4°C
Dew Point: 37°F , 3°C
Humidity: 71%
Barometer: 30.21 inHg , 1023 hPa
Summary: Clear
Visibility: greater than 7 miles , 10 km
2018/02/20 19:20 EGJB 201920Z 36013KT CAVOK 08/03 Q1023